createdAt,value
2023-03-26T00:01:52.649Z,8.73
2023-03-26T00:04:34.225Z,8.70
2023-03-26T00:07:14.114Z,8.68
2023-03-26T00:09:52.504Z,8.64
2023-03-26T00:12:30.715Z,8.66
2023-03-26T00:15:10.809Z,8.65
2023-03-26T00:17:49.496Z,8.65
2023-03-26T00:20:28.244Z,8.65
2023-03-26T00:23:08.501Z,8.64
2023-03-26T00:25:42.962Z,8.57
2023-03-26T00:28:13.774Z,8.49
2023-03-26T00:31:03.692Z,8.41
2023-03-26T00:33:41.822Z,8.40
2023-03-26T00:36:22.334Z,8.39
2023-03-26T00:38:54.384Z,8.35
2023-03-26T00:41:31.387Z,8.27
2023-03-26T00:44:11.841Z,8.23
2023-03-26T00:46:47.908Z,8.20
2023-03-26T00:49:27.910Z,8.09
2023-03-26T00:52:09.044Z,8.16
2023-03-26T00:54:48.413Z,8.17
2023-03-26T00:57:35.881Z,8.16
2023-03-26T01:00:15.793Z,8.16
2023-03-26T01:02:50.846Z,8.13
2023-03-26T01:05:45.458Z,8.11
2023-03-26T01:08:49.718Z,8.06
2023-03-26T01:11:34.459Z,8.12
2023-03-26T01:14:11.873Z,8.12
2023-03-26T01:17:04.762Z,8.09
2023-03-26T01:20:13.556Z,8.06
2023-03-26T01:22:53.602Z,8.08
2023-03-26T01:25:32.819Z,8.12
2023-03-26T01:28:13.034Z,8.15
2023-03-26T01:31:10.520Z,8.21
2023-03-26T01:34:04.507Z,8.21
2023-03-26T01:36:58.565Z,8.19
2023-03-26T01:40:12.434Z,8.17
2023-03-26T01:43:12.594Z,8.14
2023-03-26T01:45:53.146Z,8.12
2023-03-26T01:48:37.180Z,8.09
2023-03-26T01:51:25.550Z,8.07
2023-03-26T01:54:06.424Z,8.12
2023-03-26T01:57:09.632Z,8.12
2023-03-26T02:00:12.664Z,8.13
2023-03-26T02:03:21.057Z,8.10
2023-03-26T02:06:23.912Z,8.08
2023-03-26T02:09:24.219Z,8.08
2023-03-26T02:12:04.888Z,8.14
2023-03-26T02:14:44.060Z,8.18
2023-03-26T02:17:24.864Z,8.23
2023-03-26T02:20:06.713Z,8.23
2023-03-26T02:22:47.521Z,8.22
2023-03-26T02:25:26.219Z,8.20
2023-03-26T02:28:04.602Z,8.18
2023-03-26T02:30:46.091Z,8.18
2023-03-26T02:33:25.019Z,8.18
2023-03-26T02:36:00.054Z,8.18
2023-03-26T02:38:39.229Z,8.17
2023-03-26T02:41:17.421Z,8.18
2023-03-26T02:43:55.732Z,8.16
2023-03-26T02:46:34.505Z,8.09
2023-03-26T02:49:13.678Z,8.08
2023-03-26T02:51:56.910Z,8.06
2023-03-26T02:54:37.244Z,8.04
2023-03-26T02:57:17.196Z,7.99
2023-03-26T02:59:57.074Z,7.96
2023-03-26T03:02:39.191Z,7.98
2023-03-26T03:05:19.144Z,8.02
2023-03-26T03:07:58.342Z,8.01
2023-03-26T03:10:38.820Z,8.03
2023-03-26T03:13:19.424Z,8.06
2023-03-26T03:15:57.809Z,8.10
2023-03-26T03:18:35.969Z,8.12
2023-03-26T03:21:15.250Z,8.14
2023-03-26T03:23:53.929Z,8.11
2023-03-26T03:26:32.346Z,8.07
2023-03-26T03:29:13.250Z,8.10
2023-03-26T03:31:51.551Z,8.14
2023-03-26T03:34:29.538Z,8.18
2023-03-26T03:37:09.510Z,8.16
2023-03-26T03:39:48.419Z,8.16
2023-03-26T03:42:19.169Z,8.17
2023-03-26T03:44:55.239Z,8.18
2023-03-26T03:47:34.255Z,8.18
2023-03-26T03:50:13.379Z,8.21
2023-03-26T03:52:51.853Z,8.23
2023-03-26T03:55:30.241Z,8.22
2023-03-26T03:58:09.573Z,8.22
2023-03-26T04:00:48.881Z,8.22
2023-03-26T04:03:33.260Z,8.19
2023-03-26T04:06:13.494Z,8.18
2023-03-26T04:08:51.522Z,8.17
2023-03-26T04:11:30.342Z,8.22
2023-03-26T04:14:10.847Z,8.26
2023-03-26T04:16:49.470Z,8.22
2023-03-26T04:19:28.169Z,8.20
2023-03-26T04:22:08.312Z,8.21
2023-03-26T04:24:48.940Z,8.19
2023-03-26T04:27:32.326Z,8.17
2023-03-26T04:30:15.840Z,8.19
2023-03-26T04:32:46.669Z,8.15
2023-03-26T04:35:26.678Z,8.19
2023-03-26T04:38:07.784Z,8.11
2023-03-26T04:40:49.489Z,8.17
2023-03-26T04:43:28.696Z,8.15
2023-03-26T04:46:08.639Z,8.13
2023-03-26T04:48:46.841Z,8.11
2023-03-26T04:51:29.772Z,8.12
2023-03-26T04:54:10.028Z,8.14
2023-03-26T04:56:59.705Z,8.13
2023-03-26T04:59:37.351Z,8.06
2023-03-26T05:02:08.959Z,8.03
2023-03-26T05:04:50.431Z,8.01
2023-03-26T05:07:29.461Z,8.00
2023-03-26T05:10:10.056Z,8.03
2023-03-26T05:12:42.195Z,8.02
2023-03-26T05:15:22.767Z,7.97
2023-03-26T05:18:01.784Z,7.95
2023-03-26T05:20:40.685Z,7.93
2023-03-26T05:23:19.389Z,7.92
2023-03-26T05:25:57.962Z,7.95
2023-03-26T05:28:36.744Z,8.02
2023-03-26T05:31:17.147Z,8.10
2023-03-26T05:33:57.065Z,8.14
2023-03-26T05:36:29.113Z,8.20
2023-03-26T05:39:00.603Z,8.24
2023-03-26T05:41:37.794Z,8.28
2023-03-26T05:44:16.302Z,8.36
2023-03-26T05:46:46.926Z,8.47
2023-03-26T05:49:27.126Z,8.50
2023-03-26T05:52:05.871Z,8.56
2023-03-26T05:54:44.286Z,8.61
2023-03-26T05:57:24.252Z,8.61
2023-03-26T06:00:04.505Z,8.66
2023-03-26T06:02:36.802Z,8.75
2023-03-26T06:05:15.965Z,8.87
2023-03-26T06:07:55.254Z,8.95
2023-03-26T06:10:33.823Z,9.03
2023-03-26T06:13:04.415Z,9.15
2023-03-26T06:15:39.014Z,9.50
2023-03-26T06:18:20.163Z,9.68
2023-03-26T06:20:58.426Z,9.65
2023-03-26T06:23:36.961Z,9.54
2023-03-26T06:26:15.886Z,9.39
2023-03-26T06:28:54.394Z,9.26
2023-03-26T06:31:33.221Z,9.21
2023-03-26T06:34:12.970Z,9.19
2023-03-26T06:36:53.171Z,9.08
2023-03-26T06:39:31.051Z,8.94
2023-03-26T06:42:11.095Z,8.81
2023-03-26T06:44:49.199Z,8.73
2023-03-26T06:47:28.471Z,8.76
2023-03-26T06:50:06.859Z,8.78
2023-03-26T06:52:45.857Z,8.71
2023-03-26T06:55:25.157Z,8.61
2023-03-26T06:58:03.224Z,8.69
2023-03-26T07:00:44.986Z,8.71
2023-03-26T07:03:24.944Z,8.75
2023-03-26T07:06:03.122Z,8.82
2023-03-26T07:08:41.872Z,8.95
2023-03-26T07:11:21.030Z,9.05
2023-03-26T07:13:59.883Z,9.25
2023-03-26T07:16:30.443Z,9.43
2023-03-26T07:19:01.166Z,9.45
2023-03-26T07:21:41.081Z,9.85
2023-03-26T07:24:20.711Z,10.22
2023-03-26T07:27:22.132Z,10.70
2023-03-26T07:30:16.843Z,11.24
2023-03-26T07:33:09.036Z,11.55
2023-03-26T07:36:17.459Z,11.39
2023-03-26T07:39:41.648Z,11.37
2023-03-26T07:43:03.778Z,11.51
2023-03-26T07:45:42.940Z,11.33
2023-03-26T07:48:25.774Z,11.08
2023-03-26T07:51:03.380Z,11.10
2023-03-26T07:53:42.301Z,11.16
2023-03-26T07:56:30.095Z,11.15
2023-03-26T07:59:18.125Z,10.94
2023-03-26T08:02:07.789Z,10.73
2023-03-26T08:05:21.021Z,10.56
2023-03-26T08:08:07.746Z,10.57
2023-03-26T08:11:02.526Z,10.44
2023-03-26T08:14:23.021Z,10.42
2023-03-26T08:17:19.212Z,10.57
2023-03-26T08:20:32.816Z,10.62
2023-03-26T08:23:52.747Z,10.77
2023-03-26T08:27:16.791Z,10.76
2023-03-26T08:30:26.630Z,10.66
2023-03-26T08:33:13.095Z,10.45
2023-03-26T08:35:46.155Z,10.23
2023-03-26T08:38:23.112Z,10.10
2023-03-26T08:41:07.539Z,10.07
2023-03-26T08:44:23.133Z,10.02
2023-03-26T08:47:44.725Z,10.02
2023-03-26T08:50:38.652Z,10.05
2023-03-26T08:54:00.350Z,9.96
2023-03-26T08:56:55.517Z,10.07
2023-03-26T09:00:25.279Z,10.04
2023-03-26T09:03:19.407Z,10.04
2023-03-26T09:06:35.933Z,9.97
2023-03-26T09:09:59.604Z,9.87
2023-03-26T09:13:16.371Z,9.80
2023-03-26T09:16:08.694Z,9.86
2023-03-26T09:19:17.347Z,9.88
2023-03-26T09:22:24.419Z,9.79
2023-03-26T09:25:32.132Z,10.16
2023-03-26T09:28:40.051Z,11.46
2023-03-26T09:31:32.470Z,12.41
2023-03-26T09:34:31.230Z,12.87
2023-03-26T09:37:56.680Z,13.30
2023-03-26T09:40:45.282Z,13.64
2023-03-26T09:43:59.746Z,13.70
2023-03-26T09:46:58.659Z,13.48
2023-03-26T09:50:17.103Z,12.94
2023-03-26T09:53:22.663Z,12.56
2023-03-26T09:56:19.916Z,12.11
2023-03-26T09:59:30.789Z,11.92
2023-03-26T10:02:46.843Z,11.71
2023-03-26T10:05:48.222Z,11.46
2023-03-26T10:09:02.731Z,11.36
2023-03-26T10:12:03.727Z,11.49
2023-03-26T10:15:33.573Z,11.95
2023-03-26T10:18:27.928Z,12.27
2023-03-26T10:22:01.763Z,12.70
2023-03-26T10:25:23.895Z,12.64
2023-03-26T10:28:32.818Z,12.36
2023-03-26T10:31:24.630Z,11.92
2023-03-26T10:34:30.113Z,11.55
2023-03-26T10:38:03.688Z,11.31
2023-03-26T10:41:15.929Z,11.58
2023-03-26T10:44:27.606Z,12.12
2023-03-26T10:47:39.072Z,12.73
2023-03-26T10:50:46.961Z,12.87
2023-03-26T10:53:56.039Z,12.85
2023-03-26T10:56:49.780Z,12.12
2023-03-26T10:59:30.890Z,11.21
2023-03-26T11:02:29.366Z,10.58
2023-03-26T11:05:45.922Z,10.38
2023-03-26T11:08:36.119Z,10.59
2023-03-26T11:11:46.838Z,10.76
2023-03-26T11:14:45.349Z,11.06
2023-03-26T11:17:39.186Z,11.32
2023-03-26T11:20:50.478Z,11.37
2023-03-26T11:23:46.018Z,11.23
2023-03-26T11:27:14.467Z,11.28
2023-03-26T11:30:18.008Z,11.20
2023-03-26T11:33:05.062Z,11.10
2023-03-26T11:35:50.129Z,11.10
2023-03-26T11:38:37.796Z,11.02
2023-03-26T11:41:31.540Z,10.91
2023-03-26T11:44:32.323Z,10.83
2023-03-26T11:47:16.731Z,10.72
2023-03-26T11:49:54.018Z,10.73
2023-03-26T11:52:29.713Z,10.71
2023-03-26T11:55:11.926Z,10.76
2023-03-26T11:57:57.965Z,11.00
2023-03-26T12:00:31.818Z,11.26
2023-03-26T12:03:21.479Z,11.38
2023-03-26T12:05:59.864Z,11.41
2023-03-26T12:08:47.760Z,11.33
2023-03-26T12:11:35.650Z,11.32
2023-03-26T12:14:24.120Z,11.33
2023-03-26T12:17:14.884Z,11.31
2023-03-26T12:19:50.500Z,11.18
2023-03-26T12:22:38.171Z,10.99
2023-03-26T12:25:25.605Z,10.94
2023-03-26T12:28:23.708Z,10.94
2023-03-26T12:31:21.831Z,11.22
2023-03-26T12:34:22.565Z,11.59
2023-03-26T12:37:03.839Z,11.77
2023-03-26T12:40:09.552Z,11.80
2023-03-26T12:44:46.407Z,11.98
2023-03-26T12:47:46.129Z,11.87
2023-03-26T12:48:59.006Z,11.80
2023-03-26T12:51:45.728Z,11.82
2023-03-26T12:55:00.409Z,12.06
2023-03-26T12:57:52.583Z,12.17
2023-03-26T13:00:56.024Z,12.13
2023-03-26T13:04:34.847Z,12.20
2023-03-26T13:07:47.769Z,12.32
2023-03-26T13:11:11.413Z,12.34
2023-03-26T13:14:21.423Z,12.27
2023-03-26T13:17:28.496Z,12.10
2023-03-26T13:20:37.868Z,12.21
2023-03-26T13:23:24.693Z,12.56
2023-03-26T13:26:51.334Z,12.82
2023-03-26T13:29:47.486Z,12.98
2023-03-26T13:32:45.367Z,13.00
2023-03-26T13:36:06.025Z,13.04
2023-03-26T13:39:11.779Z,13.11
2023-03-26T13:42:38.536Z,13.03
2023-03-26T13:45:43.915Z,13.12
2023-03-26T13:48:51.608Z,13.14
2023-03-26T13:51:52.630Z,12.89
2023-03-26T13:54:37.490Z,12.78
2023-03-26T13:57:35.198Z,12.66
2023-03-26T14:00:27.747Z,12.73
2023-03-26T14:03:17.902Z,12.69
2023-03-26T14:05:58.716Z,12.80
2023-03-26T14:09:08.172Z,12.82
2023-03-26T14:12:06.323Z,12.63
2023-03-26T14:15:14.784Z,12.65
2023-03-26T14:18:33.419Z,12.79
2023-03-26T14:21:37.779Z,12.78
2023-03-26T14:24:55.262Z,12.69
2023-03-26T14:27:56.840Z,12.55
2023-03-26T14:31:30.717Z,12.28
2023-03-26T14:34:56.755Z,11.97
2023-03-26T14:38:08.479Z,11.93
2023-03-26T14:41:02.185Z,11.92
2023-03-26T14:43:58.598Z,11.90
2023-03-26T14:46:39.839Z,11.79
2023-03-26T14:49:54.325Z,11.79
2023-03-26T14:52:53.000Z,11.90
2023-03-26T14:55:48.882Z,11.98
2023-03-26T14:58:52.747Z,12.05
2023-03-26T15:01:56.562Z,12.04
2023-03-26T15:04:50.220Z,12.04
2023-03-26T15:08:02.337Z,12.04
2023-03-26T15:11:07.744Z,12.04
2023-03-26T15:14:37.428Z,12.03
2023-03-26T15:17:59.036Z,12.02
2023-03-26T15:21:34.793Z,11.97
2023-03-26T15:24:53.023Z,11.84
2023-03-26T15:27:55.812Z,11.65
2023-03-26T15:31:14.478Z,11.49
2023-03-26T15:34:20.659Z,11.47
2023-03-26T15:37:43.961Z,11.46
2023-03-26T15:41:00.574Z,11.43
2023-03-26T15:44:24.954Z,11.43
2023-03-26T15:47:29.123Z,11.48
2023-03-26T15:50:36.687Z,11.55
2023-03-26T15:53:48.940Z,11.68
2023-03-26T15:57:09.154Z,11.92
2023-03-26T16:00:19.986Z,12.25
2023-03-26T16:03:16.750Z,12.25
2023-03-26T16:06:23.415Z,12.17
2023-03-26T16:09:39.373Z,12.00
2023-03-26T16:12:33.865Z,11.80
2023-03-26T16:15:35.668Z,11.65
2023-03-26T16:18:23.065Z,11.51
2023-03-26T16:21:30.505Z,11.37
2023-03-26T16:24:08.498Z,11.26
2023-03-26T16:26:54.337Z,11.22
2023-03-26T16:29:34.591Z,11.14
2023-03-26T16:32:41.106Z,11.08
2023-03-26T16:35:17.772Z,11.01
2023-03-26T16:38:11.826Z,10.90
2023-03-26T16:41:20.093Z,10.82
2023-03-26T16:44:32.673Z,10.73
2023-03-26T16:47:49.609Z,10.66
2023-03-26T16:51:01.322Z,10.59
2023-03-26T16:53:58.465Z,10.47
2023-03-26T16:56:50.333Z,10.39
2023-03-26T17:00:06.597Z,10.31
2023-03-26T17:02:42.956Z,10.22
2023-03-26T17:05:19.862Z,10.16
2023-03-26T17:08:36.179Z,10.10
2023-03-26T17:11:36.800Z,10.04
2023-03-26T17:14:52.976Z,9.96
2023-03-26T17:17:59.038Z,9.88
2023-03-26T17:21:04.206Z,9.82
2023-03-26T17:24:15.228Z,9.76
2023-03-26T17:27:24.223Z,9.69
2023-03-26T17:30:14.820Z,9.64
2023-03-26T17:33:18.271Z,9.60
2023-03-26T17:36:15.208Z,9.55
2023-03-26T17:39:04.711Z,9.49
2023-03-26T17:42:21.811Z,9.48
2023-03-26T17:45:18.966Z,9.43
2023-03-26T17:48:25.503Z,9.39
2023-03-26T17:51:23.622Z,9.35
2023-03-26T17:54:01.749Z,9.32
2023-03-26T17:56:40.613Z,9.28
2023-03-26T17:59:25.230Z,9.26
2023-03-26T18:02:08.211Z,9.24
2023-03-26T18:04:46.197Z,9.22
2023-03-26T18:07:52.293Z,9.24
2023-03-26T18:10:46.678Z,9.26
2023-03-26T18:13:34.714Z,9.28
2023-03-26T18:16:40.774Z,9.28
2023-03-26T18:19:23.367Z,9.26
2023-03-26T18:22:19.014Z,9.26
2023-03-26T18:25:00.141Z,9.26
2023-03-26T18:27:45.954Z,9.26
2023-03-26T18:30:27.031Z,9.22
2023-03-26T18:33:17.072Z,9.19
2023-03-26T18:36:00.226Z,9.17
2023-03-26T18:38:41.117Z,9.13
2023-03-26T18:41:42.164Z,9.11
2023-03-26T18:44:21.670Z,9.08
2023-03-26T18:47:06.607Z,9.06
2023-03-26T18:49:47.051Z,9.04
2023-03-26T18:52:25.343Z,9.02
2023-03-26T18:55:04.820Z,9.00
2023-03-26T18:57:43.678Z,9.03
2023-03-26T19:00:34.916Z,9.05
2023-03-26T19:03:18.047Z,9.11
2023-03-26T19:05:58.664Z,9.13
2023-03-26T19:08:31.285Z,9.14
2023-03-26T19:11:13.824Z,9.13
2023-03-26T19:14:08.576Z,9.13
2023-03-26T19:16:48.619Z,9.11
2023-03-26T19:19:32.258Z,9.04
2023-03-26T19:22:08.023Z,8.99
2023-03-26T19:24:43.575Z,8.93
2023-03-26T19:27:21.970Z,8.90
2023-03-26T19:30:01.034Z,8.87
2023-03-26T19:32:38.992Z,8.85
2023-03-26T19:35:24.872Z,8.83
2023-03-26T19:38:03.121Z,8.84
2023-03-26T19:40:43.608Z,8.86
2023-03-26T19:43:22.589Z,8.86
2023-03-26T19:46:02.100Z,8.89
2023-03-26T19:48:46.032Z,8.89
2023-03-26T19:51:34.287Z,8.83
2023-03-26T19:54:20.099Z,8.76
2023-03-26T19:56:58.683Z,8.72
2023-03-26T19:59:29.479Z,8.66
2023-03-26T20:02:15.429Z,8.63
2023-03-26T20:04:46.165Z,8.58
2023-03-26T20:07:35.425Z,8.53
2023-03-26T20:10:17.598Z,8.49
2023-03-26T20:12:48.521Z,8.46
2023-03-26T20:15:29.400Z,8.45
2023-03-26T20:18:05.528Z,8.43
2023-03-26T20:20:45.843Z,8.41
2023-03-26T20:23:25.838Z,8.39
2023-03-26T20:26:05.352Z,8.34
2023-03-26T20:28:47.672Z,8.33
2023-03-26T20:31:27.376Z,8.25
2023-03-26T20:34:05.306Z,8.25
2023-03-26T20:36:42.876Z,8.19
2023-03-26T20:39:21.026Z,8.14
2023-03-26T20:41:59.208Z,8.08
2023-03-26T20:44:37.247Z,8.01
2023-03-26T20:47:17.548Z,7.95
2023-03-26T20:49:56.372Z,7.94
2023-03-26T20:52:33.721Z,7.90
2023-03-26T20:55:15.937Z,7.88
2023-03-26T20:57:54.275Z,7.85
2023-03-26T21:00:33.027Z,7.83
2023-03-26T21:03:13.686Z,7.81
2023-03-26T21:05:52.783Z,7.78
2023-03-26T21:08:36.048Z,7.71
2023-03-26T21:11:54.139Z,7.64
2023-03-26T21:14:44.671Z,7.54
2023-03-26T21:17:24.303Z,7.49
2023-03-26T21:20:12.526Z,7.49
2023-03-26T21:23:09.415Z,7.50
2023-03-26T21:26:18.681Z,7.51
2023-03-26T21:28:50.784Z,7.51
2023-03-26T21:31:25.011Z,7.50
2023-03-26T21:34:05.803Z,7.49
2023-03-26T21:36:44.064Z,7.48
2023-03-26T21:39:23.924Z,7.45
2023-03-26T21:42:05.194Z,7.43
2023-03-26T21:44:45.021Z,7.41
2023-03-26T21:47:23.303Z,7.39
2023-03-26T21:50:03.255Z,7.36
2023-03-26T21:52:47.986Z,7.36
2023-03-26T21:55:26.909Z,7.37
2023-03-26T21:58:51.850Z,7.41
2023-03-26T22:01:52.055Z,7.42
2023-03-26T22:04:46.865Z,7.42
2023-03-26T22:07:56.440Z,7.38
2023-03-26T22:10:34.153Z,7.33
2023-03-26T22:13:13.093Z,7.28
2023-03-26T22:15:43.824Z,7.22
2023-03-26T22:18:22.515Z,7.16
2023-03-26T22:20:54.737Z,7.16
2023-03-26T22:23:38.235Z,7.20
2023-03-26T22:26:09.514Z,7.23
2023-03-26T22:28:47.493Z,7.22
2023-03-26T22:31:26.849Z,7.26
2023-03-26T22:34:06.937Z,7.29
2023-03-26T22:36:45.638Z,7.29
2023-03-26T22:39:24.275Z,7.27
2023-03-26T22:42:04.214Z,7.25
2023-03-26T22:44:41.650Z,7.26
2023-03-26T22:47:22.108Z,7.25
2023-03-26T22:49:59.129Z,7.31
2023-03-26T22:52:37.178Z,7.34
2023-03-26T22:55:16.942Z,7.37
2023-03-26T22:58:07.825Z,7.47
2023-03-26T23:00:47.317Z,7.58
2023-03-26T23:03:35.306Z,7.65
2023-03-26T23:06:12.804Z,7.65
2023-03-26T23:08:50.203Z,7.67
2023-03-26T23:11:30.036Z,7.67
2023-03-26T23:14:07.417Z,7.64
2023-03-26T23:16:46.064Z,7.60
2023-03-26T23:19:23.566Z,7.59
2023-03-26T23:22:01.364Z,7.61
2023-03-26T23:24:42.165Z,7.65
2023-03-26T23:27:22.693Z,7.66
2023-03-26T23:30:01.733Z,7.68
2023-03-26T23:32:32.411Z,7.68
2023-03-26T23:35:12.392Z,7.67
2023-03-26T23:37:51.500Z,7.63
2023-03-26T23:40:28.920Z,7.64
2023-03-26T23:43:07.290Z,7.58
2023-03-26T23:45:46.048Z,7.55
2023-03-26T23:48:22.753Z,7.59
2023-03-26T23:51:02.869Z,7.63
2023-03-26T23:53:39.642Z,7.63
2023-03-26T23:56:13.857Z,7.63
2023-03-26T23:58:51.971Z,7.64
